sensor_id;sensor_type;location;lat;lon;timestamp;P1;durP1;ratioP1;P2;durP2;ratioP2
52208;SDS011;38507;53.132;6.394;2023-09-19T00:00:43;12.35;;;2.55;;
52208;SDS011;38507;53.132;6.394;2023-09-19T00:03:09;14.45;;;2.20;;
52208;SDS011;38507;53.132;6.394;2023-09-19T00:05:37;5.80;;;1.83;;
52208;SDS011;38507;53.132;6.394;2023-09-19T00:08:03;11.65;;;2.03;;
52208;SDS011;38507;53.132;6.394;2023-09-19T00:10:31;8.25;;;1.70;;
52208;SDS011;38507;53.132;6.394;2023-09-19T00:13:00;12.45;;;1.88;;
52208;SDS011;38507;53.132;6.394;2023-09-19T00:15:30;12.20;;;2.00;;
52208;SDS011;38507;53.132;6.394;2023-09-19T00:18:00;9.18;;;2.03;;
52208;SDS011;38507;53.132;6.394;2023-09-19T00:20:26;12.23;;;2.25;;
52208;SDS011;38507;53.132;6.394;2023-09-19T00:22:54;14.90;;;2.05;;
52208;SDS011;38507;53.132;6.394;2023-09-19T00:25:20;10.27;;;1.50;;
52208;SDS011;38507;53.132;6.394;2023-09-19T00:27:46;9.43;;;2.08;;
52208;SDS011;38507;53.132;6.394;2023-09-19T00:30:14;11.60;;;2.17;;
52208;SDS011;38507;53.132;6.394;2023-09-19T00:32:41;11.48;;;1.80;;
52208;SDS011;38507;53.132;6.394;2023-09-19T00:35:07;13.45;;;2.05;;
52208;SDS011;38507;53.132;6.394;2023-09-19T00:37:35;12.10;;;1.85;;
52208;SDS011;38507;53.132;6.394;2023-09-19T00:40:02;14.68;;;2.10;;
52208;SDS011;38507;53.132;6.394;2023-09-19T00:42:30;9.50;;;1.80;;
52208;SDS011;38507;53.132;6.394;2023-09-19T00:44:56;11.60;;;1.80;;
52208;SDS011;38507;53.132;6.394;2023-09-19T00:47:22;10.10;;;1.90;;
52208;SDS011;38507;53.132;6.394;2023-09-19T00:49:48;12.52;;;1.75;;
52208;SDS011;38507;53.132;6.394;2023-09-19T00:52:17;10.60;;;1.80;;
52208;SDS011;38507;53.132;6.394;2023-09-19T00:54:48;11.98;;;2.42;;
52208;SDS011;38507;53.132;6.394;2023-09-19T00:57:14;10.10;;;1.80;;
52208;SDS011;38507;53.132;6.394;2023-09-19T00:59:43;12.70;;;1.85;;
52208;SDS011;38507;53.132;6.394;2023-09-19T01:02:09;12.27;;;2.15;;
52208;SDS011;38507;53.132;6.394;2023-09-19T01:04:35;12.18;;;2.00;;
52208;SDS011;38507;53.132;6.394;2023-09-19T01:07:02;13.38;;;2.42;;
52208;SDS011;38507;53.132;6.394;2023-09-19T01:09:28;12.27;;;2.03;;
52208;SDS011;38507;53.132;6.394;2023-09-19T01:11:56;10.85;;;2.20;;
52208;SDS011;38507;53.132;6.394;2023-09-19T01:17:03;7.25;;;2.03;;
52208;SDS011;38507;53.132;6.394;2023-09-19T01:19:48;9.35;;;1.88;;
52208;SDS011;38507;53.132;6.394;2023-09-19T01:22:26;11.52;;;2.08;;
52208;SDS011;38507;53.132;6.394;2023-09-19T01:30:44;14.73;;;2.03;;
52208;SDS011;38507;53.132;6.394;2023-09-19T01:33:12;13.85;;;2.22;;
52208;SDS011;38507;53.132;6.394;2023-09-19T01:35:39;11.82;;;1.90;;
52208;SDS011;38507;53.132;6.394;2023-09-19T01:38:05;13.55;;;2.20;;
52208;SDS011;38507;53.132;6.394;2023-09-19T01:40:41;14.07;;;1.90;;
52208;SDS011;38507;53.132;6.394;2023-09-19T01:43:12;13.43;;;2.40;;
52208;SDS011;38507;53.132;6.394;2023-09-19T01:51:11;11.20;;;2.13;;
52208;SDS011;38507;53.132;6.394;2023-09-19T01:56:29;9.90;;;2.13;;
52208;SDS011;38507;53.132;6.394;2023-09-19T01:59:12;15.73;;;2.25;;
52208;SDS011;38507;53.132;6.394;2023-09-19T02:01:41;9.77;;;2.10;;
52208;SDS011;38507;53.132;6.394;2023-09-19T02:04:09;7.85;;;1.88;;
52208;SDS011;38507;53.132;6.394;2023-09-19T02:06:35;13.43;;;2.25;;
52208;SDS011;38507;53.132;6.394;2023-09-19T02:09:06;9.45;;;1.92;;
52208;SDS011;38507;53.132;6.394;2023-09-19T02:11:32;11.05;;;1.92;;
52208;SDS011;38507;53.132;6.394;2023-09-19T02:13:57;11.35;;;2.08;;
52208;SDS011;38507;53.132;6.394;2023-09-19T02:16:24;9.95;;;1.77;;
52208;SDS011;38507;53.132;6.394;2023-09-19T02:18:50;10.23;;;2.00;;
52208;SDS011;38507;53.132;6.394;2023-09-19T02:21:16;8.38;;;1.85;;
52208;SDS011;38507;53.132;6.394;2023-09-19T02:23:43;8.30;;;1.63;;
52208;SDS011;38507;53.132;6.394;2023-09-19T02:26:09;4.35;;;1.60;;
52208;SDS011;38507;53.132;6.394;2023-09-19T02:28:37;9.15;;;1.92;;
52208;SDS011;38507;53.132;6.394;2023-09-19T02:31:02;7.32;;;1.73;;
52208;SDS011;38507;53.132;6.394;2023-09-19T02:33:30;13.57;;;1.70;;
52208;SDS011;38507;53.132;6.394;2023-09-19T02:35:57;8.25;;;2.20;;
52208;SDS011;38507;53.132;6.394;2023-09-19T02:38:24;8.32;;;1.88;;
52208;SDS011;38507;53.132;6.394;2023-09-19T02:40:51;12.68;;;2.10;;
52208;SDS011;38507;53.132;6.394;2023-09-19T02:43:17;14.02;;;1.90;;
52208;SDS011;38507;53.132;6.394;2023-09-19T02:45:45;8.65;;;1.65;;
52208;SDS011;38507;53.132;6.394;2023-09-19T02:48:11;11.18;;;2.03;;
52208;SDS011;38507;53.132;6.394;2023-09-19T02:50:37;13.10;;;1.95;;
52208;SDS011;38507;53.132;6.394;2023-09-19T02:53:05;6.65;;;1.65;;
52208;SDS011;38507;53.132;6.394;2023-09-19T02:55:31;11.32;;;1.77;;
52208;SDS011;38507;53.132;6.394;2023-09-19T02:57:57;10.27;;;2.33;;
52208;SDS011;38507;53.132;6.394;2023-09-19T03:00:23;14.48;;;2.60;;
52208;SDS011;38507;53.132;6.394;2023-09-19T03:02:50;10.88;;;2.15;;
52208;SDS011;38507;53.132;6.394;2023-09-19T03:05:18;11.70;;;2.30;;
52208;SDS011;38507;53.132;6.394;2023-09-19T03:07:44;10.43;;;2.13;;
52208;SDS011;38507;53.132;6.394;2023-09-19T03:10:12;9.25;;;1.70;;
52208;SDS011;38507;53.132;6.394;2023-09-19T03:12:39;13.30;;;1.67;;
52208;SDS011;38507;53.132;6.394;2023-09-19T03:15:06;9.77;;;1.80;;
52208;SDS011;38507;53.132;6.394;2023-09-19T03:17:33;8.85;;;1.80;;
52208;SDS011;38507;53.132;6.394;2023-09-19T03:19:59;11.85;;;2.03;;
52208;SDS011;38507;53.132;6.394;2023-09-19T03:22:26;9.63;;;2.00;;
52208;SDS011;38507;53.132;6.394;2023-09-19T03:24:52;12.27;;;2.08;;
52208;SDS011;38507;53.132;6.394;2023-09-19T03:27:19;8.90;;;1.85;;
52208;SDS011;38507;53.132;6.394;2023-09-19T03:29:46;18.63;;;3.10;;
52208;SDS011;38507;53.132;6.394;2023-09-19T03:32:12;11.70;;;2.20;;
52208;SDS011;38507;53.132;6.394;2023-09-19T03:34:38;10.18;;;1.70;;
52208;SDS011;38507;53.132;6.394;2023-09-19T03:37:08;11.80;;;1.98;;
52208;SDS011;38507;53.132;6.394;2023-09-19T03:39:34;10.10;;;2.17;;
52208;SDS011;38507;53.132;6.394;2023-09-19T03:42:00;19.23;;;2.10;;
52208;SDS011;38507;53.132;6.394;2023-09-19T03:44:32;10.73;;;1.88;;
52208;SDS011;38507;53.132;6.394;2023-09-19T03:46:58;15.05;;;2.30;;
52208;SDS011;38507;53.132;6.394;2023-09-19T03:49:23;11.30;;;1.88;;
52208;SDS011;38507;53.132;6.394;2023-09-19T03:51:49;7.68;;;1.92;;
52208;SDS011;38507;53.132;6.394;2023-09-19T03:54:15;10.98;;;2.08;;
52208;SDS011;38507;53.132;6.394;2023-09-19T03:56:42;12.30;;;2.15;;
52208;SDS011;38507;53.132;6.394;2023-09-19T03:59:08;9.80;;;2.05;;
52208;SDS011;38507;53.132;6.394;2023-09-19T04:01:34;15.02;;;2.40;;
52208;SDS011;38507;53.132;6.394;2023-09-19T04:04:00;11.43;;;1.92;;
52208;SDS011;38507;53.132;6.394;2023-09-19T04:06:33;10.93;;;1.90;;
52208;SDS011;38507;53.132;6.394;2023-09-19T04:09:00;9.80;;;1.88;;
52208;SDS011;38507;53.132;6.394;2023-09-19T04:11:27;7.65;;;1.80;;
52208;SDS011;38507;53.132;6.394;2023-09-19T04:13:52;8.52;;;1.67;;
52208;SDS011;38507;53.132;6.394;2023-09-19T04:16:18;18.55;;;2.33;;
52208;SDS011;38507;53.132;6.394;2023-09-19T04:18:44;11.70;;;2.15;;
52208;SDS011;38507;53.132;6.394;2023-09-19T04:21:10;12.52;;;1.80;;
52208;SDS011;38507;53.132;6.394;2023-09-19T04:23:36;9.75;;;2.22;;
52208;SDS011;38507;53.132;6.394;2023-09-19T04:26:01;10.13;;;2.08;;
52208;SDS011;38507;53.132;6.394;2023-09-19T04:28:29;13.68;;;1.92;;
52208;SDS011;38507;53.132;6.394;2023-09-19T04:30:56;10.38;;;1.90;;
52208;SDS011;38507;53.132;6.394;2023-09-19T04:33:22;7.10;;;1.70;;
52208;SDS011;38507;53.132;6.394;2023-09-19T04:35:51;7.28;;;1.95;;
52208;SDS011;38507;53.132;6.394;2023-09-19T04:38:20;13.05;;;1.50;;
52208;SDS011;38507;53.132;6.394;2023-09-19T04:40:46;8.25;;;1.88;;
52208;SDS011;38507;53.132;6.394;2023-09-19T04:43:12;7.43;;;1.73;;
52208;SDS011;38507;53.132;6.394;2023-09-19T04:45:38;11.45;;;2.67;;
52208;SDS011;38507;53.132;6.394;2023-09-19T04:48:05;7.57;;;2.17;;
52208;SDS011;38507;53.132;6.394;2023-09-19T04:50:33;14.43;;;2.42;;
52208;SDS011;38507;53.132;6.394;2023-09-19T04:53:00;12.98;;;1.90;;
52208;SDS011;38507;53.132;6.394;2023-09-19T04:55:26;13.45;;;2.13;;
52208;SDS011;38507;53.132;6.394;2023-09-19T04:57:52;9.52;;;1.95;;
52208;SDS011;38507;53.132;6.394;2023-09-19T05:00:22;10.13;;;1.90;;
52208;SDS011;38507;53.132;6.394;2023-09-19T05:02:56;6.82;;;1.38;;
52208;SDS011;38507;53.132;6.394;2023-09-19T05:05:22;10.25;;;1.80;;
52208;SDS011;38507;53.132;6.394;2023-09-19T05:07:50;15.02;;;2.42;;
52208;SDS011;38507;53.132;6.394;2023-09-19T05:10:16;12.82;;;2.28;;
52208;SDS011;38507;53.132;6.394;2023-09-19T05:12:44;15.57;;;2.42;;
52208;SDS011;38507;53.132;6.394;2023-09-19T05:15:13;10.18;;;2.08;;
52208;SDS011;38507;53.132;6.394;2023-09-19T05:17:42;12.38;;;2.00;;
52208;SDS011;38507;53.132;6.394;2023-09-19T05:20:16;13.98;;;2.20;;
52208;SDS011;38507;53.132;6.394;2023-09-19T05:22:49;9.00;;;1.70;;
52208;SDS011;38507;53.132;6.394;2023-09-19T05:25:22;11.23;;;2.05;;
52208;SDS011;38507;53.132;6.394;2023-09-19T05:27:48;13.18;;;2.50;;
52208;SDS011;38507;53.132;6.394;2023-09-19T05:30:13;10.75;;;1.88;;
52208;SDS011;38507;53.132;6.394;2023-09-19T05:32:40;10.05;;;1.67;;
52208;SDS011;38507;53.132;6.394;2023-09-19T05:35:06;8.95;;;2.05;;
52208;SDS011;38507;53.132;6.394;2023-09-19T05:37:34;7.60;;;2.08;;
52208;SDS011;38507;53.132;6.394;2023-09-19T05:40:02;11.00;;;2.05;;
52208;SDS011;38507;53.132;6.394;2023-09-19T05:42:34;11.32;;;2.08;;
52208;SDS011;38507;53.132;6.394;2023-09-19T05:45:00;14.20;;;2.10;;
52208;SDS011;38507;53.132;6.394;2023-09-19T05:47:26;13.55;;;2.72;;
52208;SDS011;38507;53.132;6.394;2023-09-19T05:49:51;15.52;;;2.10;;
52208;SDS011;38507;53.132;6.394;2023-09-19T05:52:17;7.38;;;1.60;;
52208;SDS011;38507;53.132;6.394;2023-09-19T05:54:50;10.02;;;1.85;;
52208;SDS011;38507;53.132;6.394;2023-09-19T05:57:16;14.65;;;2.53;;
52208;SDS011;38507;53.132;6.394;2023-09-19T05:59:41;13.30;;;2.38;;
52208;SDS011;38507;53.132;6.394;2023-09-19T06:02:08;14.98;;;2.30;;
52208;SDS011;38507;53.132;6.394;2023-09-19T06:04:34;11.60;;;2.22;;
52208;SDS011;38507;53.132;6.394;2023-09-19T06:07:00;17.80;;;2.55;;
52208;SDS011;38507;53.132;6.394;2023-09-19T06:09:27;13.07;;;2.08;;
52208;SDS011;38507;53.132;6.394;2023-09-19T06:11:54;7.13;;;2.03;;
52208;SDS011;38507;53.132;6.394;2023-09-19T06:14:20;12.40;;;1.98;;
52208;SDS011;38507;53.132;6.394;2023-09-19T06:16:47;13.43;;;2.88;;
52208;SDS011;38507;53.132;6.394;2023-09-19T06:19:13;11.63;;;2.42;;
52208;SDS011;38507;53.132;6.394;2023-09-19T06:21:39;14.23;;;2.22;;
52208;SDS011;38507;53.132;6.394;2023-09-19T06:24:04;15.60;;;2.83;;
52208;SDS011;38507;53.132;6.394;2023-09-19T06:26:30;9.65;;;2.47;;
52208;SDS011;38507;53.132;6.394;2023-09-19T06:28:57;14.52;;;3.00;;
52208;SDS011;38507;53.132;6.394;2023-09-19T06:31:24;9.20;;;2.20;;
52208;SDS011;38507;53.132;6.394;2023-09-19T06:33:51;12.23;;;2.28;;
52208;SDS011;38507;53.132;6.394;2023-09-19T06:36:17;10.40;;;2.45;;
52208;SDS011;38507;53.132;6.394;2023-09-19T06:38:44;14.98;;;2.60;;
52208;SDS011;38507;53.132;6.394;2023-09-19T06:41:10;11.82;;;2.10;;
52208;SDS011;38507;53.132;6.394;2023-09-19T06:43:36;9.18;;;2.28;;
52208;SDS011;38507;53.132;6.394;2023-09-19T06:46:02;12.13;;;2.10;;
52208;SDS011;38507;53.132;6.394;2023-09-19T06:48:27;10.50;;;2.10;;
52208;SDS011;38507;53.132;6.394;2023-09-19T06:50:57;14.35;;;2.42;;
52208;SDS011;38507;53.132;6.394;2023-09-19T06:53:23;7.57;;;1.80;;
52208;SDS011;38507;53.132;6.394;2023-09-19T06:55:52;14.45;;;2.20;;
52208;SDS011;38507;53.132;6.394;2023-09-19T06:58:19;11.18;;;2.38;;
52208;SDS011;38507;53.132;6.394;2023-09-19T07:00:45;13.70;;;2.25;;
52208;SDS011;38507;53.132;6.394;2023-09-19T07:03:11;11.38;;;2.05;;
52208;SDS011;38507;53.132;6.394;2023-09-19T07:05:39;8.77;;;2.00;;
52208;SDS011;38507;53.132;6.394;2023-09-19T07:08:06;15.23;;;2.60;;
52208;SDS011;38507;53.132;6.394;2023-09-19T07:10:33;11.23;;;2.40;;
52208;SDS011;38507;53.132;6.394;2023-09-19T07:12:59;16.17;;;3.05;;
52208;SDS011;38507;53.132;6.394;2023-09-19T07:15:28;10.63;;;2.70;;
52208;SDS011;38507;53.132;6.394;2023-09-19T07:17:56;14.30;;;2.67;;
52208;SDS011;38507;53.132;6.394;2023-09-19T07:20:22;16.17;;;2.58;;
52208;SDS011;38507;53.132;6.394;2023-09-19T07:22:51;18.27;;;3.00;;
52208;SDS011;38507;53.132;6.394;2023-09-19T07:25:19;11.27;;;2.20;;
52208;SDS011;38507;53.132;6.394;2023-09-19T07:27:46;12.23;;;2.05;;
52208;SDS011;38507;53.132;6.394;2023-09-19T07:30:12;10.60;;;2.45;;
52208;SDS011;38507;53.132;6.394;2023-09-19T07:32:38;13.65;;;2.42;;
52208;SDS011;38507;53.132;6.394;2023-09-19T07:35:06;8.05;;;2.03;;
52208;SDS011;38507;53.132;6.394;2023-09-19T07:37:32;7.82;;;2.10;;
52208;SDS011;38507;53.132;6.394;2023-09-19T07:40:03;14.05;;;2.60;;
52208;SDS011;38507;53.132;6.394;2023-09-19T07:42:34;12.63;;;2.30;;
52208;SDS011;38507;53.132;6.394;2023-09-19T07:45:02;10.57;;;3.25;;
52208;SDS011;38507;53.132;6.394;2023-09-19T07:47:28;13.80;;;2.55;;
52208;SDS011;38507;53.132;6.394;2023-09-19T07:49:55;11.13;;;2.25;;
52208;SDS011;38507;53.132;6.394;2023-09-19T07:52:21;12.82;;;2.22;;
52208;SDS011;38507;53.132;6.394;2023-09-19T07:54:47;13.60;;;3.15;;
52208;SDS011;38507;53.132;6.394;2023-09-19T07:57:14;8.32;;;2.05;;
52208;SDS011;38507;53.132;6.394;2023-09-19T07:59:40;11.45;;;2.90;;
52208;SDS011;38507;53.132;6.394;2023-09-19T08:02:07;21.17;;;2.00;;
52208;SDS011;38507;53.132;6.394;2023-09-19T08:04:34;10.70;;;2.05;;
52208;SDS011;38507;53.132;6.394;2023-09-19T08:07:00;12.55;;;2.03;;
52208;SDS011;38507;53.132;6.394;2023-09-19T08:09:29;15.07;;;3.05;;
52208;SDS011;38507;53.132;6.394;2023-09-19T08:11:58;11.57;;;2.40;;
52208;SDS011;38507;53.132;6.394;2023-09-19T08:14:24;12.77;;;2.60;;
52208;SDS011;38507;53.132;6.394;2023-09-19T08:16:51;16.27;;;3.17;;
52208;SDS011;38507;53.132;6.394;2023-09-19T08:19:16;12.65;;;2.25;;
52208;SDS011;38507;53.132;6.394;2023-09-19T08:21:42;8.48;;;2.00;;
52208;SDS011;38507;53.132;6.394;2023-09-19T08:24:12;12.80;;;2.25;;
52208;SDS011;38507;53.132;6.394;2023-09-19T08:26:39;11.90;;;2.97;;
52208;SDS011;38507;53.132;6.394;2023-09-19T08:29:05;13.63;;;2.50;;
52208;SDS011;38507;53.132;6.394;2023-09-19T08:31:32;10.63;;;2.70;;
52208;SDS011;38507;53.132;6.394;2023-09-19T08:33:58;12.43;;;2.15;;
52208;SDS011;38507;53.132;6.394;2023-09-19T08:36:25;12.68;;;2.10;;
52208;SDS011;38507;53.132;6.394;2023-09-19T08:38:50;13.60;;;2.72;;
52208;SDS011;38507;53.132;6.394;2023-09-19T08:41:16;14.15;;;3.05;;
52208;SDS011;38507;53.132;6.394;2023-09-19T08:43:42;15.48;;;3.42;;
52208;SDS011;38507;53.132;6.394;2023-09-19T08:48:44;13.38;;;2.30;;
52208;SDS011;38507;53.132;6.394;2023-09-19T08:51:45;10.13;;;2.17;;
52208;SDS011;38507;53.132;6.394;2023-09-19T08:54:34;14.77;;;2.70;;
52208;SDS011;38507;53.132;6.394;2023-09-19T08:57:05;14.25;;;3.35;;
52208;SDS011;38507;53.132;6.394;2023-09-19T08:59:37;15.23;;;2.78;;
52208;SDS011;38507;53.132;6.394;2023-09-19T09:02:08;16.17;;;2.65;;
52208;SDS011;38507;53.132;6.394;2023-09-19T09:04:38;11.93;;;2.42;;
52208;SDS011;38507;53.132;6.394;2023-09-19T09:07:06;15.10;;;2.40;;
52208;SDS011;38507;53.132;6.394;2023-09-19T09:09:38;17.02;;;2.95;;
52208;SDS011;38507;53.132;6.394;2023-09-19T09:12:07;11.35;;;3.13;;
52208;SDS011;38507;53.132;6.394;2023-09-19T09:14:37;13.50;;;2.67;;
52208;SDS011;38507;53.132;6.394;2023-09-19T09:17:03;14.70;;;3.65;;
52208;SDS011;38507;53.132;6.394;2023-09-19T09:19:29;12.90;;;2.92;;
52208;SDS011;38507;53.132;6.394;2023-09-19T09:22:05;14.23;;;3.10;;
52208;SDS011;38507;53.132;6.394;2023-09-19T09:24:35;14.60;;;3.42;;
52208;SDS011;38507;53.132;6.394;2023-09-19T09:27:06;16.92;;;3.33;;
52208;SDS011;38507;53.132;6.394;2023-09-19T09:29:42;19.60;;;3.33;;
52208;SDS011;38507;53.132;6.394;2023-09-19T09:32:20;17.70;;;3.17;;
52208;SDS011;38507;53.132;6.394;2023-09-19T09:37:17;19.17;;;3.00;;
52208;SDS011;38507;53.132;6.394;2023-09-19T09:39:50;15.93;;;2.75;;
52208;SDS011;38507;53.132;6.394;2023-09-19T09:45:23;14.80;;;3.00;;
52208;SDS011;38507;53.132;6.394;2023-09-19T09:47:57;14.63;;;2.95;;
52208;SDS011;38507;53.132;6.394;2023-09-19T09:50:31;15.10;;;2.97;;
52208;SDS011;38507;53.132;6.394;2023-09-19T09:53:28;14.35;;;2.80;;
52208;SDS011;38507;53.132;6.394;2023-09-19T09:55:58;14.52;;;2.67;;
52208;SDS011;38507;53.132;6.394;2023-09-19T09:58:30;16.63;;;2.55;;
52208;SDS011;38507;53.132;6.394;2023-09-19T10:00:59;15.68;;;3.33;;
52208;SDS011;38507;53.132;6.394;2023-09-19T10:03:40;14.60;;;3.17;;
52208;SDS011;38507;53.132;6.394;2023-09-19T10:06:09;17.38;;;3.03;;
52208;SDS011;38507;53.132;6.394;2023-09-19T10:09:08;17.70;;;2.67;;
52208;SDS011;38507;53.132;6.394;2023-09-19T10:14:29;19.05;;;2.88;;
52208;SDS011;38507;53.132;6.394;2023-09-19T10:16:56;17.42;;;3.00;;
52208;SDS011;38507;53.132;6.394;2023-09-19T10:19:42;14.48;;;3.00;;
52208;SDS011;38507;53.132;6.394;2023-09-19T10:24:45;14.50;;;2.47;;
52208;SDS011;38507;53.132;6.394;2023-09-19T10:27:14;13.98;;;2.53;;
52208;SDS011;38507;53.132;6.394;2023-09-19T10:29:44;16.80;;;3.00;;
52208;SDS011;38507;53.132;6.394;2023-09-19T10:32:15;15.23;;;3.42;;
52208;SDS011;38507;53.132;6.394;2023-09-19T10:34:46;14.15;;;2.50;;
52208;SDS011;38507;53.132;6.394;2023-09-19T10:37:13;12.07;;;2.38;;
52208;SDS011;38507;53.132;6.394;2023-09-19T10:39:40;24.13;;;3.88;;
52208;SDS011;38507;53.132;6.394;2023-09-19T10:42:10;15.63;;;3.03;;
52208;SDS011;38507;53.132;6.394;2023-09-19T10:44:45;11.48;;;2.55;;
52208;SDS011;38507;53.132;6.394;2023-09-19T10:47:18;17.20;;;3.22;;
52208;SDS011;38507;53.132;6.394;2023-09-19T10:49:45;11.80;;;2.75;;
52208;SDS011;38507;53.132;6.394;2023-09-19T10:52:12;13.48;;;2.65;;
52208;SDS011;38507;53.132;6.394;2023-09-19T10:54:45;14.80;;;3.05;;
52208;SDS011;38507;53.132;6.394;2023-09-19T10:57:23;14.40;;;3.00;;
52208;SDS011;38507;53.132;6.394;2023-09-19T11:00:06;15.38;;;3.55;;
52208;SDS011;38507;53.132;6.394;2023-09-19T11:05:40;14.90;;;2.88;;
52208;SDS011;38507;53.132;6.394;2023-09-19T11:08:07;13.23;;;3.08;;
52208;SDS011;38507;53.132;6.394;2023-09-19T11:10:49;12.85;;;2.60;;
52208;SDS011;38507;53.132;6.394;2023-09-19T11:13:25;13.98;;;2.70;;
52208;SDS011;38507;53.132;6.394;2023-09-19T11:16:10;12.68;;;2.50;;
52208;SDS011;38507;53.132;6.394;2023-09-19T11:26:47;14.50;;;2.78;;
52208;SDS011;38507;53.132;6.394;2023-09-19T11:29:30;17.88;;;3.25;;
52208;SDS011;38507;53.132;6.394;2023-09-19T11:31:56;14.05;;;3.42;;
52208;SDS011;38507;53.132;6.394;2023-09-19T11:37:03;16.52;;;2.75;;
52208;SDS011;38507;53.132;6.394;2023-09-19T11:39:36;12.23;;;2.42;;
52208;SDS011;38507;53.132;6.394;2023-09-19T11:42:40;12.10;;;2.90;;
52208;SDS011;38507;53.132;6.394;2023-09-19T11:45:42;18.38;;;2.85;;
52208;SDS011;38507;53.132;6.394;2023-09-19T11:48:21;19.02;;;3.45;;
52208;SDS011;38507;53.132;6.394;2023-09-19T11:50:50;18.30;;;3.00;;
52208;SDS011;38507;53.132;6.394;2023-09-19T11:53:17;15.05;;;2.53;;
52208;SDS011;38507;53.132;6.394;2023-09-19T11:55:44;14.45;;;2.63;;
52208;SDS011;38507;53.132;6.394;2023-09-19T11:58:11;18.98;;;2.88;;
52208;SDS011;38507;53.132;6.394;2023-09-19T12:00:39;13.50;;;3.22;;
52208;SDS011;38507;53.132;6.394;2023-09-19T12:03:09;11.38;;;2.50;;
52208;SDS011;38507;53.132;6.394;2023-09-19T12:05:36;18.13;;;3.80;;
52208;SDS011;38507;53.132;6.394;2023-09-19T12:08:05;12.90;;;2.53;;
52208;SDS011;38507;53.132;6.394;2023-09-19T12:10:45;13.05;;;2.10;;
52208;SDS011;38507;53.132;6.394;2023-09-19T12:13:15;12.07;;;2.28;;
52208;SDS011;38507;53.132;6.394;2023-09-19T12:15:42;16.15;;;2.47;;
52208;SDS011;38507;53.132;6.394;2023-09-19T12:18:10;14.20;;;3.05;;
52208;SDS011;38507;53.132;6.394;2023-09-19T12:20:51;11.00;;;2.40;;
52208;SDS011;38507;53.132;6.394;2023-09-19T12:23:17;14.48;;;2.97;;
52208;SDS011;38507;53.132;6.394;2023-09-19T12:25:45;16.67;;;2.53;;
52208;SDS011;38507;53.132;6.394;2023-09-19T12:28:17;18.52;;;2.83;;
52208;SDS011;38507;53.132;6.394;2023-09-19T12:30:43;16.10;;;2.35;;
52208;SDS011;38507;53.132;6.394;2023-09-19T12:33:16;14.95;;;2.40;;
52208;SDS011;38507;53.132;6.394;2023-09-19T12:35:49;11.85;;;2.15;;
52208;SDS011;38507;53.132;6.394;2023-09-19T12:38:27;14.50;;;1.98;;
52208;SDS011;38507;53.132;6.394;2023-09-19T12:40:56;12.32;;;2.20;;
52208;SDS011;38507;53.132;6.394;2023-09-19T12:43:25;12.45;;;2.25;;
52208;SDS011;38507;53.132;6.394;2023-09-19T12:45:52;11.75;;;2.70;;
52208;SDS011;38507;53.132;6.394;2023-09-19T12:51:09;12.55;;;1.58;;
52208;SDS011;38507;53.132;6.394;2023-09-19T12:53:44;11.20;;;2.00;;
52208;SDS011;38507;53.132;6.394;2023-09-19T12:56:14;11.43;;;2.50;;
52208;SDS011;38507;53.132;6.394;2023-09-19T12:58:54;9.05;;;1.67;;
52208;SDS011;38507;53.132;6.394;2023-09-19T13:01:21;11.27;;;2.45;;
52208;SDS011;38507;53.132;6.394;2023-09-19T13:04:10;11.52;;;1.83;;
52208;SDS011;38507;53.132;6.394;2023-09-19T13:06:53;10.32;;;2.00;;
52208;SDS011;38507;53.132;6.394;2023-09-19T13:09:20;15.68;;;2.65;;
52208;SDS011;38507;53.132;6.394;2023-09-19T13:11:47;9.35;;;1.88;;
52208;SDS011;38507;53.132;6.394;2023-09-19T13:14:20;14.82;;;2.85;;
52208;SDS011;38507;53.132;6.394;2023-09-19T13:17:00;12.68;;;2.08;;
52208;SDS011;38507;53.132;6.394;2023-09-19T13:22:00;7.53;;;1.50;;
52208;SDS011;38507;53.132;6.394;2023-09-19T13:24:26;10.55;;;1.80;;
52208;SDS011;38507;53.132;6.394;2023-09-19T13:26:52;6.75;;;1.65;;
52208;SDS011;38507;53.132;6.394;2023-09-19T13:29:17;7.82;;;1.77;;
52208;SDS011;38507;53.132;6.394;2023-09-19T13:31:50;8.43;;;1.70;;
52208;SDS011;38507;53.132;6.394;2023-09-19T13:34:18;6.40;;;1.25;;
52208;SDS011;38507;53.132;6.394;2023-09-19T13:36:44;7.43;;;1.42;;
52208;SDS011;38507;53.132;6.394;2023-09-19T13:39:11;12.63;;;1.40;;
52208;SDS011;38507;53.132;6.394;2023-09-19T13:41:41;12.13;;;1.60;;
52208;SDS011;38507;53.132;6.394;2023-09-19T13:44:07;5.90;;;1.27;;
52208;SDS011;38507;53.132;6.394;2023-09-19T13:46:35;7.57;;;1.33;;
52208;SDS011;38507;53.132;6.394;2023-09-19T13:49:01;5.43;;;1.30;;
52208;SDS011;38507;53.132;6.394;2023-09-19T13:51:31;10.65;;;2.15;;
52208;SDS011;38507;53.132;6.394;2023-09-19T13:53:57;8.90;;;1.38;;
52208;SDS011;38507;53.132;6.394;2023-09-19T13:56:24;4.85;;;1.00;;
52208;SDS011;38507;53.132;6.394;2023-09-19T13:58:53;10.20;;;1.77;;
52208;SDS011;38507;53.132;6.394;2023-09-19T14:01:19;8.82;;;1.05;;
52208;SDS011;38507;53.132;6.394;2023-09-19T14:03:45;6.97;;;1.92;;
52208;SDS011;38507;53.132;6.394;2023-09-19T14:06:12;5.45;;;1.20;;
52208;SDS011;38507;53.132;6.394;2023-09-19T14:08:38;6.13;;;1.30;;
52208;SDS011;38507;53.132;6.394;2023-09-19T14:11:07;7.10;;;1.50;;
52208;SDS011;38507;53.132;6.394;2023-09-19T14:13:33;8.80;;;1.40;;
52208;SDS011;38507;53.132;6.394;2023-09-19T14:16:06;6.05;;;1.25;;
52208;SDS011;38507;53.132;6.394;2023-09-19T14:18:38;6.95;;;1.33;;
52208;SDS011;38507;53.132;6.394;2023-09-19T14:21:06;10.73;;;1.50;;
52208;SDS011;38507;53.132;6.394;2023-09-19T14:23:36;8.30;;;1.45;;
52208;SDS011;38507;53.132;6.394;2023-09-19T14:26:02;12.90;;;1.80;;
52208;SDS011;38507;53.132;6.394;2023-09-19T14:28:28;5.93;;;1.45;;
52208;SDS011;38507;53.132;6.394;2023-09-19T14:30:55;8.25;;;1.48;;
52208;SDS011;38507;53.132;6.394;2023-09-19T14:33:25;8.63;;;1.25;;
52208;SDS011;38507;53.132;6.394;2023-09-19T14:35:50;5.88;;;1.30;;
52208;SDS011;38507;53.132;6.394;2023-09-19T14:38:16;4.95;;;1.52;;
52208;SDS011;38507;53.132;6.394;2023-09-19T14:40:42;7.45;;;1.50;;
52208;SDS011;38507;53.132;6.394;2023-09-19T14:43:08;9.35;;;2.10;;
52208;SDS011;38507;53.132;6.394;2023-09-19T14:45:35;8.15;;;1.77;;
52208;SDS011;38507;53.132;6.394;2023-09-19T14:48:01;10.63;;;1.60;;
52208;SDS011;38507;53.132;6.394;2023-09-19T14:50:30;7.10;;;1.42;;
52208;SDS011;38507;53.132;6.394;2023-09-19T14:52:56;7.53;;;1.70;;
52208;SDS011;38507;53.132;6.394;2023-09-19T14:55:32;10.68;;;1.50;;
52208;SDS011;38507;53.132;6.394;2023-09-19T14:58:02;9.35;;;1.38;;
52208;SDS011;38507;53.132;6.394;2023-09-19T15:00:28;6.38;;;1.60;;
52208;SDS011;38507;53.132;6.394;2023-09-19T15:02:53;8.38;;;1.80;;
52208;SDS011;38507;53.132;6.394;2023-09-19T15:05:21;9.43;;;1.77;;
52208;SDS011;38507;53.132;6.394;2023-09-19T15:07:46;7.45;;;1.50;;
52208;SDS011;38507;53.132;6.394;2023-09-19T15:10:12;5.50;;;1.40;;
52208;SDS011;38507;53.132;6.394;2023-09-19T15:12:38;6.43;;;1.67;;
52208;SDS011;38507;53.132;6.394;2023-09-19T15:15:05;5.10;;;1.60;;
52208;SDS011;38507;53.132;6.394;2023-09-19T15:17:34;12.43;;;2.42;;
52208;SDS011;38507;53.132;6.394;2023-09-19T15:20:01;7.75;;;1.50;;
52208;SDS011;38507;53.132;6.394;2023-09-19T15:22:27;7.20;;;1.40;;
52208;SDS011;38507;53.132;6.394;2023-09-19T15:24:53;8.02;;;1.40;;
52208;SDS011;38507;53.132;6.394;2023-09-19T15:27:18;4.53;;;1.38;;
52208;SDS011;38507;53.132;6.394;2023-09-19T15:29:45;8.02;;;1.70;;
52208;SDS011;38507;53.132;6.394;2023-09-19T15:32:11;5.25;;;1.60;;
52208;SDS011;38507;53.132;6.394;2023-09-19T15:34:37;9.25;;;1.52;;
52208;SDS011;38507;53.132;6.394;2023-09-19T15:37:02;6.53;;;1.20;;